createdAt,value
2023-04-09T00:04:36.034Z,0
2023-04-09T00:19:36.038Z,0
2023-04-09T00:34:35.979Z,0
2023-04-09T00:49:36.028Z,0
2023-04-09T01:04:35.931Z,0
2023-04-09T01:19:35.941Z,0
2023-04-09T01:34:35.879Z,0
2023-04-09T01:49:35.938Z,0
2023-04-09T02:04:35.845Z,0
2023-04-09T02:19:35.887Z,0
2023-04-09T02:34:35.830Z,0
2023-04-09T02:49:35.871Z,1
2023-04-09T03:04:35.815Z,0
2023-04-09T03:19:35.860Z,0
2023-04-09T03:34:35.784Z,0
2023-04-09T03:49:35.784Z,0
2023-04-09T04:04:35.787Z,0
2023-04-09T04:19:35.745Z,0
2023-04-09T04:34:35.691Z,0
2023-04-09T04:49:35.726Z,0
2023-04-09T05:04:35.683Z,0
2023-04-09T05:19:35.725Z,0
2023-04-09T05:34:35.671Z,0
2023-04-09T05:49:35.720Z,0
2023-04-09T06:04:35.645Z,0
2023-04-09T06:19:35.645Z,0
2023-04-09T06:34:35.574Z,0
2023-04-09T06:49:35.592Z,0
2023-04-09T07:04:35.643Z,1
2023-04-09T07:19:35.546Z,1
2023-04-09T07:34:35.514Z,0
2023-04-09T07:49:35.493Z,0
2023-04-09T08:04:35.667Z,0
2023-04-09T08:19:35.428Z,0
2023-04-09T08:34:35.417Z,0
2023-04-09T08:49:35.436Z,0
2023-04-09T09:04:35.345Z,0
2023-04-09T09:19:35.373Z,0
2023-04-09T09:34:35.295Z,0
2023-04-09T09:49:35.336Z,0
2023-04-09T10:04:35.297Z,0
2023-04-09T10:19:35.248Z,0
2023-04-09T10:34:35.220Z,0
2023-04-09T10:49:35.215Z,0
2023-04-09T11:04:35.195Z,0
2023-04-09T11:19:35.187Z,0
2023-04-09T11:34:35.098Z,0
2023-04-09T11:49:35.120Z,0
2023-04-09T12:04:35.188Z,0
2023-04-09T12:19:35.068Z,0
2023-04-09T12:34:35.019Z,0
2023-04-09T12:49:35.033Z,0
2023-04-09T13:04:35.133Z,34
2023-04-09T13:19:34.974Z,44
2023-04-09T13:34:34.943Z,170
2023-04-09T13:49:34.926Z,51
2023-04-09T14:04:34.920Z,213
2023-04-09T14:19:34.868Z,203
2023-04-09T14:34:34.799Z,112
2023-04-09T14:49:34.868Z,79
2023-04-09T15:04:34.983Z,131
2023-04-09T15:19:34.810Z,105
2023-04-09T15:34:34.726Z,5
2023-04-09T15:49:34.699Z,195
2023-04-09T16:04:34.681Z,7
2023-04-09T16:19:34.708Z,24
2023-04-09T16:34:34.641Z,191
2023-04-09T16:49:34.617Z,64
2023-04-09T17:04:34.648Z,222
2023-04-09T17:19:34.553Z,193
2023-04-09T17:34:34.502Z,97
2023-04-09T17:49:34.570Z,124
2023-04-09T18:04:34.590Z,179
2023-04-09T18:19:34.449Z,214
2023-04-09T18:34:34.394Z,247
2023-04-09T18:49:34.448Z,177
2023-04-09T19:04:34.397Z,209
2023-04-09T19:19:34.397Z,55
2023-04-09T19:34:34.315Z,53
2023-04-09T19:49:34.352Z,0
2023-04-09T20:04:34.266Z,0
2023-04-09T20:19:34.270Z,0
2023-04-09T20:34:34.214Z,0
2023-04-09T20:49:34.230Z,0
2023-04-09T21:04:34.159Z,0
2023-04-09T21:19:34.173Z,0
2023-04-09T21:34:34.177Z,0
2023-04-09T21:49:34.168Z,0
2023-04-09T22:04:34.185Z,0
2023-04-09T22:19:34.123Z,0
2023-04-09T22:34:34.065Z,0
2023-04-09T22:49:34.042Z,2
2023-04-09T23:04:34.087Z,3
2023-04-09T23:19:34.035Z,0
2023-04-09T23:49:34.000Z,0
